Time;durP1;ratioP1;P1;durP2;ratioP2;P2;SDS_P1;SDS_P2;PMS_P1;PMS_P2;Temp;Humidity;BMP_temperature;BMP_pressure;BME280_temperature;BME280_humidity;BME280_pressure;Samples;Min_cycle;Max_cycle;Signal;HPM_P1;HPM_P2
2022/03/25 00:02:44;;;;;;;28.33;14.80;;;9.00;77.30;;;;;;5011337;28;20236;-70
2022/03/25 00:05:33;;;;;;;23.93;13.00;;;9.00;76.80;;;;;;5010922;28;20312;-71
2022/03/25 00:08:22;;;;;;;26.03;12.53;;;9.10;76.00;;;;;;5007441;28;20548;-70
2022/03/25 00:11:11;;;;;;;23.07;13.30;;;9.00;75.30;;;;;;5032571;28;20231;-70
2022/03/25 00:14:00;;;;;;;23.83;11.77;;;9.00;75.30;;;;;;5013165;28;20237;-71
2022/03/25 00:16:50;;;;;;;23.03;12.73;;;9.00;74.20;;;;;;5030812;28;22257;-70
2022/03/25 00:19:39;;;;;;;18.73;11.03;;;9.10;73.80;;;;;;5039218;28;20226;-72
2022/03/25 00:22:28;;;;;;;22.57;11.60;;;9.00;73.20;;;;;;5053118;28;20231;-73
2022/03/25 00:25:16;;;;;;;19.23;10.10;;;9.10;72.40;;;;;;5036072;28;20220;-73
2022/03/25 00:28:05;;;;;;;15.07;9.40;;;9.00;71.00;;;;;;5028320;28;20232;-71
2022/03/25 00:30:55;;;;;;;17.63;10.00;;;8.90;70.20;;;;;;5041115;28;20230;-71
2022/03/25 00:33:49;;;;;;;18.30;9.60;;;9.00;70.20;;;;;;5050825;28;20219;-71
2022/03/25 00:36:37;;;;;;;21.33;9.57;;;9.00;69.80;;;;;;5050258;28;20745;-71
2022/03/25 00:39:26;;;;;;;16.37;9.17;;;9.00;69.30;;;;;;5052553;28;20230;-74
2022/03/25 00:42:16;;;;;;;17.70;9.37;;;9.00;68.70;;;;;;5049591;28;20220;-71
2022/03/25 00:45:07;;;;;;;18.57;9.40;;;8.90;68.30;;;;;;5058100;28;20878;-72
2022/03/25 00:47:56;;;;;;;15.47;9.30;;;8.90;68.20;;;;;;5065216;28;20308;-70
2022/03/25 00:50:46;;;;;;;19.07;10.57;;;8.90;67.80;;;;;;5055620;28;20233;-70
2022/03/25 00:53:35;;;;;;;16.00;9.90;;;8.90;69.30;;;;;;5058074;28;20223;-71
2022/03/25 00:56:24;;;;;;;20.70;10.03;;;8.90;69.50;;;;;;5057682;28;20230;-72
2022/03/25 00:59:14;;;;;;;17.40;8.77;;;8.80;67.40;;;;;;5074890;28;20242;-73
2022/03/25 01:02:04;;;;;;;16.80;9.20;;;8.80;66.40;;;;;;5057987;28;20234;-71
2022/03/25 01:04:52;;;;;;;17.83;9.23;;;8.80;65.70;;;;;;5057928;28;20246;-70
2022/03/25 01:07:42;;;;;;;16.20;8.73;;;8.80;66.00;;;;;;5054357;28;20287;-71
2022/03/25 01:10:31;;;;;;;15.40;8.97;;;8.80;65.40;;;;;;5049736;28;20224;-70
2022/03/25 01:13:20;;;;;;;18.73;8.60;;;8.80;65.30;;;;;;5059272;28;20213;-69
2022/03/25 01:16:08;;;;;;;18.43;9.13;;;8.80;64.70;;;;;;5056573;28;20347;-70
2022/03/25 01:18:59;;;;;;;18.20;7.73;;;8.80;64.00;;;;;;5050607;28;20651;-70
2022/03/25 01:21:48;;;;;;;17.67;8.23;;;8.90;64.20;;;;;;5048130;28;20353;-68
2022/03/25 01:24:38;;;;;;;15.47;8.10;;;8.70;62.80;;;;;;5053388;28;20223;-69
2022/03/25 01:27:26;;;;;;;14.10;7.93;;;8.70;62.70;;;;;;5061914;28;20846;-69
2022/03/25 01:30:16;;;;;;;14.10;8.23;;;8.80;63.20;;;;;;5051550;28;20361;-70
2022/03/25 01:33:06;;;;;;;14.20;8.47;;;8.80;63.30;;;;;;5053183;28;20299;-70
2022/03/25 01:35:55;;;;;;;13.13;7.43;;;8.70;63.00;;;;;;5053029;28;20216;-70
2022/03/25 01:38:44;;;;;;;16.97;8.07;;;8.80;63.10;;;;;;5062861;28;20793;-71
2022/03/25 01:41:34;;;;;;;13.77;7.87;;;8.80;63.20;;;;;;5050231;28;20587;-71
2022/03/25 01:44:27;;;;;;;13.13;8.10;;;8.80;63.40;;;;;;5056910;28;20310;-71
2022/03/25 01:47:17;;;;;;;19.33;8.83;;;8.80;63.60;;;;;;5052373;28;20230;-71
2022/03/25 01:50:17;;;;;;;15.37;8.40;;;8.80;63.60;;;;;;5063783;28;20252;-74
2022/03/25 01:53:11;;;;;;;15.13;8.27;;;8.70;64.00;;;;;;5062570;28;20237;-72
2022/03/25 01:56:01;;;;;;;16.87;9.00;;;8.70;64.10;;;;;;5054225;28;20228;-73
2022/03/25 01:58:51;;;;;;;15.70;8.57;;;8.80;64.80;;;;;;5064275;28;20794;-70
2022/03/25 02:01:40;;;;;;;15.90;8.70;;;8.80;64.90;;;;;;5049728;28;20314;-69
2022/03/25 02:04:29;;;;;;;17.50;8.90;;;8.70;64.90;;;;;;5051546;28;20282;-69
2022/03/25 02:07:18;;;;;;;14.37;8.70;;;8.70;65.80;;;;;;5061978;28;20224;-71
2022/03/25 02:10:08;;;;;;;19.00;9.20;;;8.60;65.70;;;;;;5052322;28;20572;-71
2022/03/25 02:12:59;;;;;;;16.53;9.77;;;8.70;65.30;;;;;;5049887;28;20298;-72
2022/03/25 02:15:49;;;;;;;25.50;9.73;;;8.50;66.20;;;;;;5054341;28;20217;-72
2022/03/25 02:18:38;;;;;;;20.77;10.27;;;8.50;67.00;;;;;;5053186;28;20244;-72
2022/03/25 02:21:31;;;;;;;20.63;10.43;;;8.40;67.90;;;;;;5054352;28;20279;-71
2022/03/25 02:24:21;;;;;;;24.30;10.77;;;8.40;69.10;;;;;;5064053;28;20636;-71
2022/03/25 02:27:12;;;;;;;30.90;12.53;;;8.30;70.30;;;;;;5051732;28;20235;-71
2022/03/25 02:30:02;;;;;;;25.33;12.43;;;8.30;70.80;;;;;;5054276;28;20221;-72
2022/03/25 02:32:51;;;;;;;25.30;12.77;;;8.30;71.10;;;;;;5049700;28;20257;-71
2022/03/25 02:35:42;;;;;;;19.97;11.77;;;8.20;72.00;;;;;;5063047;28;20308;-74
2022/03/25 02:38:33;;;;;;;25.77;12.10;;;8.20;71.70;;;;;;5056905;28;20710;-72
2022/03/25 02:41:21;;;;;;;23.60;11.43;;;8.20;71.50;;;;;;5061119;28;20217;-71
2022/03/25 02:44:11;;;;;;;26.27;12.83;;;8.10;70.70;;;;;;5053497;28;20734;-71
2022/03/25 02:47:09;;;;;;;24.30;11.83;;;8.10;70.80;;;;;;5057750;28;20225;-70
2022/03/25 02:49:58;;;;;;;20.63;11.37;;;8.20;70.60;;;;;;5054242;28;20304;-71
2022/03/25 02:52:47;;;;;;;27.93;12.67;;;8.20;70.00;;;;;;5048041;28;20212;-71
2022/03/25 02:55:37;;;;;;;22.10;11.20;;;8.10;70.30;;;;;;5052130;28;20308;-70
2022/03/25 02:58:25;;;;;;;27.43;12.97;;;8.10;69.80;;;;;;5047305;28;20213;-72
2022/03/25 03:01:14;;;;;;;26.07;13.67;;;8.10;70.70;;;;;;5066949;28;20226;-71
2022/03/25 03:04:03;;;;;;;23.43;13.73;;;8.00;72.60;;;;;;5051949;28;20227;-72
2022/03/25 03:06:52;;;;;;;31.90;15.47;;;8.00;73.60;;;;;;5051196;28;20354;-73
2022/03/25 03:09:40;;;;;;;33.87;16.70;;;7.80;74.90;;;;;;5053973;28;20539;-73
2022/03/25 03:12:30;;;;;;;28.93;16.83;;;7.60;76.50;;;;;;5050507;28;20236;-71
2022/03/25 03:15:20;;;;;;;33.77;17.60;;;7.60;78.20;;;;;;5054091;28;20224;-69
2022/03/25 03:18:10;;;;;;;34.70;17.90;;;7.40;79.50;;;;;;5050255;28;20224;-70
2022/03/25 03:20:58;;;;;;;45.43;19.43;;;7.40;80.60;;;;;;5055438;28;20945;-70
2022/03/25 03:23:47;;;;;;;31.53;19.03;;;7.30;81.70;;;;;;5053183;28;20746;-71
2022/03/25 03:26:39;;;;;;;36.60;19.73;;;7.10;83.50;;;;;;5046940;28;20547;-71
2022/03/25 03:29:29;;;;;;;36.50;19.70;;;7.10;84.80;;;;;;5056117;28;20212;-72
2022/03/25 03:32:18;;;;;;;36.60;20.27;;;6.80;86.30;;;;;;5049960;28;20220;-72
2022/03/25 03:35:08;;;;;;;37.43;20.17;;;6.80;87.60;;;;;;5053924;28;20239;-73
2022/03/25 03:37:57;;;;;;;37.07;20.50;;;6.60;89.00;;;;;;5052305;28;20222;-72
2022/03/25 03:40:45;;;;;;;39.10;21.50;;;6.60;90.60;;;;;;5064287;28;20236;-74
2022/03/25 03:43:36;;;;;;;36.03;21.20;;;6.60;90.30;;;;;;5053166;28;20216;-75
2022/03/25 03:46:26;;;;;;;43.53;21.37;;;6.70;90.40;;;;;;5051126;28;20220;-73
2022/03/25 03:49:15;;;;;;;39.97;19.93;;;6.60;90.80;;;;;;5050133;28;20223;-74
2022/03/25 03:52:05;;;;;;;41.33;21.70;;;6.50;91.40;;;;;;5065537;28;20964;-75
2022/03/25 03:54:54;;;;;;;39.00;21.40;;;6.50;91.50;;;;;;5067971;28;20218;-75
2022/03/25 03:58:01;;;;;;;38.17;20.13;;;6.60;91.70;;;;;;5052732;28;20228;-75
2022/03/25 04:00:51;;;;;;;35.43;19.63;;;6.70;91.50;;;;;;5062074;28;20228;-74
2022/03/25 04:03:42;;;;;;;39.77;21.50;;;6.60;91.60;;;;;;5052682;28;20228;-75
2022/03/25 04:06:30;;;;;;;35.13;19.70;;;6.60;91.80;;;;;;5062809;28;20750;-75
2022/03/25 04:09:19;;;;;;;32.93;19.00;;;6.60;91.90;;;;;;5049956;28;20715;-74
2022/03/25 04:12:13;;;;;;;31.80;19.70;;;6.70;91.90;;;;;;5049238;28;20220;-74
2022/03/25 04:15:02;;;;;;;34.40;19.60;;;6.50;92.20;;;;;;5061863;28;20634;-74
2022/03/25 04:17:54;;;;;;;37.43;19.87;;;6.40;92.70;;;;;;5050892;28;20660;-76
2022/03/25 04:20:44;;;;;;;37.40;19.80;;;6.50;92.90;;;;;;5049629;28;20224;-75
2022/03/25 04:23:38;;;;;;;35.00;19.77;;;6.40;93.00;;;;;;5051087;28;20816;-74
2022/03/25 04:26:27;;;;;;;39.23;20.10;;;6.50;93.00;;;;;;5067732;28;20226;-74
2022/03/25 04:29:18;;;;;;;33.93;19.67;;;6.50;93.00;;;;;;5054926;28;20262;-73
2022/03/25 04:32:08;;;;;;;34.50;19.40;;;6.60;92.90;;;;;;5051536;28;20654;-73
2022/03/25 04:34:56;;;;;;;36.00;19.17;;;6.50;93.00;;;;;;5049794;28;20221;-72
2022/03/25 04:37:50;;;;;;;37.50;19.93;;;6.60;93.20;;;;;;5052875;28;20227;-72
2022/03/25 04:40:39;;;;;;;37.90;18.97;;;6.50;93.20;;;;;;5049596;28;20227;-72
2022/03/25 04:43:28;;;;;;;37.37;19.17;;;6.50;93.70;;;;;;5052301;28;20227;-72
2022/03/25 04:46:17;;;;;;;36.40;19.63;;;6.50;93.60;;;;;;5049510;28;20220;-72
2022/03/25 04:49:08;;;;;;;36.57;19.10;;;6.40;93.90;;;;;;5049911;28;20232;-75
2022/03/25 04:51:57;;;;;;;43.13;20.03;;;6.50;93.70;;;;;;5046712;28;20228;-72
2022/03/25 04:54:46;;;;;;;31.17;17.77;;;6.50;93.80;;;;;;5047699;28;20229;-73
2022/03/25 04:57:39;;;;;;;39.57;18.83;;;6.50;94.00;;;;;;5049998;28;20225;-75
2022/03/25 05:00:28;;;;;;;36.50;18.83;;;6.60;93.50;;;;;;5069677;28;20247;-73
2022/03/25 05:03:17;;;;;;;37.57;19.77;;;6.70;93.40;;;;;;5060833;28;20225;-71
2022/03/25 05:06:07;;;;;;;44.17;20.30;;;6.70;93.30;;;;;;5065739;28;20228;-72
2022/03/25 05:08:56;;;;;;;34.63;18.53;;;6.70;93.30;;;;;;5062045;28;20255;-73
2022/03/25 05:11:46;;;;;;;38.87;19.10;;;6.70;93.40;;;;;;5046773;28;20213;-73
2022/03/25 05:14:35;;;;;;;39.03;19.23;;;6.70;93.40;;;;;;5054589;28;20231;-71
2022/03/25 05:17:24;;;;;;;38.87;18.87;;;6.60;93.70;;;;;;5050326;28;20220;-72
2022/03/25 05:20:14;;;;;;;41.37;19.70;;;6.70;93.50;;;;;;5060950;28;20229;-72
2022/03/25 05:23:03;;;;;;;32.93;18.77;;;6.70;93.90;;;;;;5053759;28;20237;-72
2022/03/25 05:25:53;;;;;;;40.60;20.17;;;6.60;93.80;;;;;;5052455;28;20598;-72
2022/03/25 05:28:43;;;;;;;40.60;18.60;;;6.70;93.70;;;;;;5049130;28;20213;-72
2022/03/25 05:31:32;;;;;;;36.80;19.13;;;6.70;93.70;;;;;;5055259;28;20697;-74
2022/03/25 05:34:21;;;;;;;42.87;20.10;;;6.80;93.50;;;;;;5053619;28;20366;-75
2022/03/25 05:37:10;;;;;;;46.43;19.97;;;6.90;93.40;;;;;;5053221;28;20239;-74
2022/03/25 05:39:58;;;;;;;39.23;18.73;;;6.90;93.40;;;;;;5054822;28;20224;-74
2022/03/25 05:42:48;;;;;;;45.30;20.13;;;7.00;93.20;;;;;;5054512;28;20308;-76
2022/03/25 05:45:38;;;;;;;40.20;19.80;;;7.10;93.20;;;;;;5054599;28;20687;-72
2022/03/25 05:48:27;;;;;;;38.50;19.73;;;7.10;93.00;;;;;;5054180;28;20220;-73
2022/03/25 05:51:16;;;;;;;39.97;19.63;;;7.10;92.90;;;;;;5051364;28;20221;-72
2022/03/25 05:54:05;;;;;;;36.93;19.47;;;7.20;93.20;;;;;;5054626;28;20691;-73
2022/03/25 05:56:54;;;;;;;41.03;19.77;;;7.10;92.90;;;;;;5067124;28;20236;-74
2022/03/25 05:59:46;;;;;;;39.07;20.03;;;7.30;92.50;;;;;;5050925;28;20232;-71
2022/03/25 06:02:36;;;;;;;38.80;20.07;;;7.40;92.40;;;;;;5054463;28;20217;-71
2022/03/25 06:05:26;;;;;;;41.27;19.50;;;7.40;92.50;;;;;;5053567;28;20224;-71
2022/03/25 06:08:14;;;;;;;42.27;20.13;;;7.50;92.20;;;;;;5049282;28;20259;-71
2022/03/25 06:11:03;;;;;;;36.63;19.20;;;7.60;92.00;;;;;;5053500;28;20217;-72
2022/03/25 06:13:52;;;;;;;37.93;19.07;;;7.60;91.90;;;;;;5065554;28;20282;-74
2022/03/25 06:16:41;;;;;;;43.30;20.03;;;7.70;91.80;;;;;;5056376;28;20223;-73
2022/03/25 06:19:31;;;;;;;39.80;20.10;;;7.80;91.50;;;;;;5055236;28;20252;-74
2022/03/25 06:22:20;;;;;;;44.20;19.30;;;8.00;91.20;;;;;;5053442;28;20720;-74
2022/03/25 06:25:09;;;;;;;38.13;19.03;;;8.00;91.20;;;;;;5053247;28;20223;-73
2022/03/25 06:27:59;;;;;;;40.97;19.43;;;8.10;90.80;;;;;;5054486;28;20341;-75
2022/03/25 06:30:49;;;;;;;41.07;19.63;;;8.10;90.70;;;;;;5052589;28;20220;-75
2022/03/25 06:33:38;;;;;;;39.70;19.40;;;8.30;90.30;;;;;;5057231;28;20696;-74
2022/03/25 06:36:28;;;;;;;36.80;19.50;;;8.40;90.10;;;;;;5065688;28;20222;-72
2022/03/25 06:39:17;;;;;;;36.47;18.53;;;8.50;89.60;;;;;;5055609;28;20781;-70
2022/03/25 06:42:06;;;;;;;38.30;19.50;;;8.60;89.00;;;;;;5055606;28;20559;-72
2022/03/25 06:44:54;;;;;;;38.50;19.80;;;8.70;88.30;;;;;;5053330;28;20238;-72
2022/03/25 06:47:44;;;;;;;33.63;18.27;;;8.70;88.00;;;;;;5067314;28;20227;-70
2022/03/25 06:50:33;;;;;;;33.37;17.83;;;8.80;87.70;;;;;;5054242;28;20236;-70
2022/03/25 06:53:24;;;;;;;35.93;18.10;;;8.90;85.30;;;;;;5059605;28;20647;-70
2022/03/25 06:56:14;;;;;;;32.47;17.33;;;9.00;85.20;;;;;;5058633;28;20299;-71
2022/03/25 06:59:03;;;;;;;40.23;18.57;;;9.20;84.60;;;;;;5056386;28;20226;-71
2022/03/25 07:01:52;;;;;;;35.13;17.40;;;9.30;83.40;;;;;;5051350;28;20367;-71
2022/03/25 07:04:41;;;;;;;37.73;18.30;;;9.30;83.30;;;;;;5053638;28;20220;-70
2022/03/25 07:07:31;;;;;;;35.53;17.57;;;9.40;83.10;;;;;;5053082;28;20228;-71
2022/03/25 07:10:23;;;;;;;38.43;18.43;;;9.50;82.00;;;;;;5069187;28;20395;-71
2022/03/25 07:13:13;;;;;;;37.50;18.10;;;9.60;81.60;;;;;;5063922;28;20314;-71
2022/03/25 07:16:03;;;;;;;39.97;18.73;;;9.70;80.60;;;;;;5053896;28;20221;-72
2022/03/25 07:18:51;;;;;;;33.93;17.77;;;9.80;80.50;;;;;;5051578;28;20225;-71
2022/03/25 07:21:40;;;;;;;43.20;17.43;;;9.80;80.00;;;;;;5062972;28;20231;-72
2022/03/25 07:24:29;;;;;;;35.50;17.37;;;10.00;78.80;;;;;;5068506;28;20307;-72
2022/03/25 07:27:19;;;;;;;41.20;18.23;;;10.00;78.00;;;;;;5052923;28;20234;-72
2022/03/25 07:30:10;;;;;;;43.03;19.57;;;10.10;77.90;;;;;;5052802;28;20234;-72
2022/03/25 07:33:00;;;;;;;44.70;17.65;;;10.20;77.50;;;;;;5064797;28;20226;-73
2022/03/25 07:35:52;;;;;;;36.33;18.42;;;10.30;78.10;;;;;;5054017;28;20217;-72
2022/03/25 08:05:45;;;;;;;34.70;19.08;;;20.70;50.40;;;;;;4952214;28;21173;-72
2022/03/25 08:08:34;;;;;;;33.42;19.13;;;20.80;50.40;;;;;;4953468;28;20738;-73
2022/03/25 08:11:22;;;;;;;37.15;19.60;;;21.90;49.10;;;;;;4953322;28;20224;-71
2022/03/25 08:14:11;;;;;;;34.80;19.05;;;22.20;47.70;;;;;;4953904;28;20231;-70
2022/03/25 08:17:00;;;;;;;33.50;18.33;;;22.90;46.60;;;;;;4968878;28;20219;-70
2022/03/25 08:19:54;;;;;;;33.58;18.52;;;23.30;46.20;;;;;;4968039;28;20309;-70
2022/03/25 08:22:44;;;;;;;34.45;18.27;;;23.40;45.70;;;;;;4968080;28;20282;-69
2022/03/25 08:28:39;;;;;;;28.00;17.77;;;22.90;44.90;;;;;;5002734;28;20590;-69
2022/03/25 08:31:48;;;;;;;30.27;17.30;;;23.70;46.20;;;;;;4983744;28;20290;-70
2022/03/25 08:34:36;;;;;;;33.55;17.17;;;24.00;45.20;;;;;;4973853;28;20770;-71
2022/03/25 08:37:25;;;;;;;30.77;16.48;;;23.50;44.80;;;;;;4957822;28;20224;-71
2022/03/25 08:40:16;;;;;;;30.50;17.67;;;23.30;45.80;;;;;;4955998;28;20323;-76
2022/03/25 08:43:07;;;;;;;30.35;16.77;;;23.90;45.20;;;;;;4956544;28;21673;-73
2022/03/25 08:45:56;;;;;;;31.15;17.80;;;25.00;44.40;;;;;;4966842;28;20363;-75
2022/03/25 08:48:45;;;;;;;25.35;16.50;;;25.30;43.70;;;;;;4951113;28;20307;-76
2022/03/25 08:51:34;;;;;;;28.15;17.33;;;25.80;42.70;;;;;;4955518;28;20224;-76
2022/03/25 08:54:23;;;;;;;33.10;17.77;;;25.80;41.90;;;;;;4956750;28;20224;-77
2022/03/25 08:57:13;;;;;;;30.95;18.00;;;26.30;41.80;;;;;;4952138;28;20238;-77
2022/03/25 09:00:06;;;;;;;36.58;18.55;;;26.60;40.90;;;;;;4955172;28;20234;-77
2022/03/25 09:02:55;;;;;;;30.88;18.77;;;25.30;40.90;;;;;;4955687;28;20547;-77
2022/03/25 09:05:44;;;;;;;33.22;18.27;;;24.90;42.50;;;;;;5016380;28;20237;-77
2022/03/25 09:08:33;;;;;;;36.70;19.73;;;25.10;43.30;;;;;;5008498;28;20229;-77
2022/03/25 09:11:22;;;;;;;36.05;19.38;;;25.80;42.00;;;;;;5015463;28;20794;-78
2022/03/25 09:14:14;;;;;;;30.88;19.00;;;26.70;41.90;;;;;;5014531;28;20226;-78
2022/03/25 09:17:02;;;;;;;33.28;18.83;;;26.10;41.50;;;;;;5001720;28;20238;-77
2022/03/25 09:19:51;;;;;;;39.60;18.63;;;25.40;41.10;;;;;;5001440;28;20218;-77
2022/03/25 09:22:41;;;;;;;31.63;19.13;;;21.90;44.20;;;;;;5029300;28;20762;-76
2022/03/25 09:25:30;;;;;;;33.10;19.15;;;20.10;47.50;;;;;;5002254;28;20223;-77
2022/03/25 09:28:19;;;;;;;35.38;18.35;;;19.10;49.70;;;;;;5001960;28;20229;-76
2022/03/25 09:31:09;;;;;;;31.42;19.55;;;18.10;51.50;;;;;;5001170;28;20222;-76
2022/03/25 09:37:13;;;;;;;36.78;19.35;;;17.60;52.80;;;;;;4998968;28;20230;-76
2022/03/25 09:40:03;;;;;;;30.15;18.15;;;17.30;53.60;;;;;;5001719;28;20230;-76
2022/03/25 09:42:55;;;;;;;32.83;18.50;;;16.70;54.60;;;;;;5027324;28;20616;-78
2022/03/25 09:45:44;;;;;;;37.28;18.27;;;16.50;55.40;;;;;;4999772;28;20721;-78
2022/03/25 09:48:37;;;;;;;33.60;18.13;;;16.20;55.90;;;;;;4999979;28;20349;-78
2022/03/25 09:51:46;;;;;;;31.92;17.02;;;15.60;56.40;;;;;;5002610;28;20214;-75
2022/03/25 09:54:35;;;;;;;25.90;16.83;;;15.80;56.60;;;;;;5001472;28;20218;-78
2022/03/25 09:57:27;;;;;;;33.70;17.60;;;15.80;56.40;;;;;;4996945;28;20236;-78
2022/03/25 10:00:18;;;;;;;28.63;17.45;;;15.90;56.60;;;;;;5001280;28;20273;-77
2022/03/25 10:03:09;;;;;;;29.50;16.83;;;15.90;56.50;;;;;;4998508;28;20724;-75
2022/03/25 10:06:10;;;;;;;37.75;17.25;;;15.60;56.90;;;;;;4994701;28;20238;-75
2022/03/25 10:09:05;;;;;;;30.63;16.50;;;15.70;57.50;;;;;;4997977;28;20222;-74
2022/03/25 10:11:54;;;;;;;29.05;16.75;;;15.50;58.30;;;;;;5000022;28;20570;-76
2022/03/25 10:14:43;;;;;;;31.00;16.27;;;15.40;58.20;;;;;;5000056;28;20222;-76
2022/03/25 10:17:46;;;;;;;31.80;16.95;;;15.40;58.30;;;;;;5001818;28;20241;-75
2022/03/25 10:20:37;;;;;;;26.67;16.25;;;15.40;58.50;;;;;;5011097;28;20222;-77
2022/03/25 10:23:27;;;;;;;31.23;16.05;;;15.50;58.50;;;;;;5024579;28;20230;-76
2022/03/25 10:26:16;;;;;;;27.38;15.63;;;15.60;58.00;;;;;;4998561;28;20234;-76
2022/03/25 10:29:20;;;;;;;32.55;16.55;;;15.60;57.90;;;;;;4996424;28;20238;-75
2022/03/25 10:32:11;;;;;;;30.48;17.13;;;15.70;57.70;;;;;;4998934;28;20225;-76
2022/03/25 10:35:03;;;;;;;28.80;16.60;;;15.70;57.70;;;;;;5013906;28;20577;-76
2022/03/25 10:37:59;;;;;;;27.08;16.17;;;15.60;58.10;;;;;;5000880;28;20233;-75
2022/03/25 10:40:55;;;;;;;32.53;17.35;;;15.40;58.30;;;;;;5025507;28;20244;-76
2022/03/25 10:43:52;;;;;;;30.77;18.10;;;15.50;58.40;;;;;;4999549;28;20226;-75
2022/03/25 10:46:57;;;;;;;31.63;17.58;;;15.40;58.80;;;;;;5000137;28;20231;-75
2022/03/25 10:49:48;;;;;;;28.20;16.77;;;15.40;58.70;;;;;;5010421;28;20812;-75
2022/03/25 10:52:36;;;;;;;29.58;16.75;;;15.40;59.40;;;;;;4997702;28;20324;-76
2022/03/25 10:55:25;;;;;;;32.72;16.60;;;15.40;59.00;;;;;;4993636;28;20233;-75
2022/03/25 10:58:15;;;;;;;31.48;16.48;;;15.40;59.10;;;;;;4997863;28;20233;-75
2022/03/25 11:01:05;;;;;;;29.48;16.55;;;15.50;58.50;;;;;;4995447;28;20222;-75
2022/03/25 11:03:54;;;;;;;28.27;15.90;;;15.50;58.40;;;;;;4998248;28;20257;-74
2022/03/25 11:06:44;;;;;;;31.67;16.30;;;15.50;58.60;;;;;;4996241;28;20230;-74
2022/03/25 11:09:33;;;;;;;28.98;17.00;;;15.30;58.90;;;;;;4997105;28;20218;-74
2022/03/25 11:12:23;;;;;;;28.60;16.38;;;15.50;58.60;;;;;;4997114;28;20620;-75
2022/03/25 11:15:14;;;;;;;28.70;16.33;;;15.40;58.90;;;;;;5011678;28;20229;-73
2022/03/25 11:18:03;;;;;;;30.42;16.40;;;15.50;58.60;;;;;;4997314;28;20234;-73
2022/03/25 11:20:53;;;;;;;27.83;15.55;;;15.50;58.90;;;;;;4996664;28;20298;-73
2022/03/25 11:23:47;;;;;;;34.80;18.50;;;15.60;58.30;;;;;;4999258;28;20218;-72
2022/03/25 11:26:41;;;;;;;30.33;16.50;;;15.70;58.30;;;;;;5000028;28;20226;-74
2022/03/25 11:29:32;;;;;;;28.67;16.95;;;15.50;58.70;;;;;;4996532;28;20222;-73
2022/03/25 11:32:23;;;;;;;29.73;16.15;;;15.60;58.60;;;;;;5010728;28;20234;-74
2022/03/25 11:35:20;;;;;;;29.27;16.30;;;15.60;58.30;;;;;;4990925;28;20804;-74
2022/03/25 11:38:24;;;;;;;29.00;16.50;;;15.70;58.10;;;;;;4996111;28;20602;-75
2022/03/25 11:41:24;;;;;;;31.73;16.67;;;15.80;58.20;;;;;;4995217;28;20244;-75
2022/03/25 11:44:20;;;;;;;27.98;15.98;;;15.80;58.30;;;;;;4999234;28;20276;-75
2022/03/25 11:47:18;;;;;;;26.95;16.27;;;15.80;57.80;;;;;;5006707;28;20230;-74
2022/03/25 11:50:29;;;;;;;29.83;16.65;;;15.60;57.90;;;;;;4994596;28;20223;-74
2022/03/25 11:53:38;;;;;;;28.08;16.92;;;15.60;58.00;;;;;;4997855;28;20218;-74
2022/03/25 11:56:48;;;;;;;29.65;17.67;;;15.70;57.80;;;;;;4993175;28;20768;-73
2022/03/25 11:59:58;;;;;;;31.85;18.35;;;15.70;57.80;;;;;;4996113;28;20604;-74
2022/03/25 12:03:01;;;;;;;33.03;18.02;;;15.70;57.50;;;;;;4993139;28;20240;-73
2022/03/25 12:06:03;;;;;;;30.15;18.27;;;15.80;57.60;;;;;;5007442;28;20264;-73
2022/03/25 12:08:59;;;;;;;31.33;18.35;;;15.70;57.50;;;;;;4994408;28;20227;-73
2022/03/25 12:11:51;;;;;;;25.30;14.50;;;15.60;57.70;;;;;;4998761;28;20707;-74
2022/03/25 12:15:10;;;;;;;33.72;15.88;;;15.70;56.60;;;;;;4999797;28;20258;-73
2022/03/25 12:18:32;;;;;;;25.33;15.00;;;15.80;56.20;;;;;;4991014;28;20396;-75
2022/03/25 12:21:49;;;;;;;29.73;17.15;;;15.90;55.90;;;;;;4999354;28;20298;-74
2022/03/25 12:24:38;;;;;;;28.00;16.65;;;15.80;56.40;;;;;;4996287;28;20768;-74
2022/03/25 12:27:27;;;;;;;27.48;16.27;;;15.90;56.70;;;;;;5010338;28;20244;-73
2022/03/25 12:30:16;;;;;;;27.45;17.17;;;15.80;56.80;;;;;;4999747;28;20230;-75
2022/03/25 12:33:09;;;;;;;31.95;16.33;;;15.70;56.40;;;;;;4999315;28;20218;-74
2022/03/25 12:35:59;;;;;;;26.67;16.27;;;15.80;56.40;;;;;;4998559;28;20268;-74
2022/03/25 12:38:50;;;;;;;32.42;15.63;;;15.80;56.10;;;;;;4994221;28;20256;-74
2022/03/25 12:41:38;;;;;;;26.88;14.90;;;15.80;56.10;;;;;;4986419;28;20249;-74
2022/03/25 12:44:54;;;;;;;29.33;14.57;;;15.80;56.10;;;;;;5004541;28;20215;-76
2022/03/25 12:47:44;;;;;;;27.73;15.20;;;15.90;55.50;;;;;;4993993;28;20242;-76
2022/03/25 12:50:32;;;;;;;24.98;14.27;;;15.90;55.90;;;;;;4998783;28;20372;-65
2022/03/25 12:53:23;;;;;;;27.42;14.00;;;15.90;55.70;;;;;;4998249;28;20225;-71
2022/03/25 12:56:14;;;;;;;22.95;14.40;;;15.90;55.20;;;;;;4994618;28;20230;-71
2022/03/25 12:59:02;;;;;;;23.50;13.48;;;15.90;55.30;;;;;;4999724;28;20226;-72
2022/03/25 13:01:51;;;;;;;23.20;13.23;;;15.80;55.00;;;;;;5014174;28;20214;-72
2022/03/25 13:04:40;;;;;;;21.30;12.95;;;15.80;54.80;;;;;;4996344;28;21132;-73
2022/03/25 13:07:31;;;;;;;23.95;13.45;;;15.70;55.10;;;;;;4999292;28;20226;-73
2022/03/25 13:10:20;;;;;;;26.27;12.80;;;15.80;55.10;;;;;;4997458;28;20260;-73
2022/03/25 13:13:11;;;;;;;23.33;12.38;;;15.80;55.20;;;;;;4995993;28;20704;-74
2022/03/25 13:16:02;;;;;;;22.63;12.65;;;15.80;55.10;;;;;;5009503;28;20237;-73
2022/03/25 13:18:51;;;;;;;24.45;12.70;;;15.80;55.10;;;;;;4994707;28;20256;-73
2022/03/25 13:21:39;;;;;;;21.10;11.52;;;15.80;54.90;;;;;;5007665;28;20538;-73
2022/03/25 13:24:28;;;;;;;18.20;11.38;;;15.90;55.30;;;;;;4998034;28;20314;-72
2022/03/25 13:27:17;;;;;;;18.40;11.15;;;15.80;54.80;;;;;;5001556;28;21082;-73
2022/03/25 13:30:08;;;;;;;19.77;11.48;;;15.80;54.30;;;;;;4997681;28;20950;-74
2022/03/25 13:33:09;;;;;;;21.08;11.70;;;15.80;54.30;;;;;;5011258;28;20244;-75
2022/03/25 13:35:59;;;;;;;18.55;11.32;;;15.80;54.20;;;;;;5001928;28;20319;-74
2022/03/25 13:38:48;;;;;;;18.63;10.85;;;15.80;54.50;;;;;;4996246;28;20300;-73
2022/03/25 13:41:37;;;;;;;18.92;10.38;;;15.80;54.20;;;;;;4995891;28;20215;-74
2022/03/25 13:44:25;;;;;;;20.23;10.48;;;15.80;54.10;;;;;;5005330;28;20280;-74
2022/03/25 13:47:16;;;;;;;18.98;10.48;;;15.80;54.20;;;;;;4995977;28;20233;-73
2022/03/25 13:50:16;;;;;;;16.30;10.82;;;15.80;54.20;;;;;;4995550;28;20223;-74
2022/03/25 13:53:14;;;;;;;19.75;10.27;;;15.80;54.40;;;;;;4995058;28;20215;-74
2022/03/25 13:56:16;;;;;;;17.98;9.32;;;15.80;54.10;;;;;;4993737;28;20226;-74
2022/03/25 13:59:06;;;;;;;16.40;10.07;;;15.80;53.70;;;;;;5010185;28;20221;-74
2022/03/25 14:01:55;;;;;;;17.13;9.60;;;15.80;54.10;;;;;;5000587;28;20615;-73
2022/03/25 14:04:46;;;;;;;17.15;10.07;;;15.80;54.10;;;;;;5011249;28;20301;-73
2022/03/25 14:07:38;;;;;;;18.63;10.50;;;15.80;53.80;;;;;;5011259;28;20614;-74
2022/03/25 14:10:28;;;;;;;19.70;10.70;;;15.80;53.70;;;;;;4992681;28;20225;-73
2022/03/25 14:13:17;;;;;;;18.85;9.27;;;15.80;53.80;;;;;;4997584;28;20288;-74
2022/03/25 14:16:19;;;;;;;19.92;9.55;;;15.80;53.30;;;;;;4994977;28;20218;-74
2022/03/25 14:19:18;;;;;;;16.27;9.18;;;15.80;53.40;;;;;;4997192;28;20303;-74
2022/03/25 14:22:09;;;;;;;18.58;9.98;;;15.80;53.10;;;;;;4986763;28;20223;-74
2022/03/25 14:24:58;;;;;;;18.73;9.40;;;15.80;53.00;;;;;;4996360;28;20301;-74
2022/03/25 14:27:48;;;;;;;15.77;9.27;;;15.70;53.20;;;;;;4994276;28;20586;-73
2022/03/25 14:30:42;;;;;;;17.05;9.05;;;15.70;53.30;;;;;;4992348;28;20668;-73
2022/03/25 14:33:30;;;;;;;17.13;9.02;;;15.70;53.30;;;;;;4992750;28;20230;-70
2022/03/25 14:36:21;;;;;;;17.75;9.57;;;15.70;53.30;;;;;;4994058;28;20253;-69
2022/03/25 14:39:16;;;;;;;21.77;10.10;;;15.60;53.30;;;;;;5003183;28;20230;-68
2022/03/25 14:42:06;;;;;;;17.48;10.00;;;15.60;53.20;;;;;;4997028;28;20222;-69
2022/03/25 14:44:57;;;;;;;19.13;10.27;;;15.60;53.10;;;;;;4997311;28;20243;-70
2022/03/25 14:47:46;;;;;;;18.30;10.55;;;15.60;53.40;;;;;;4997937;28;20247;-69
2022/03/25 14:50:35;;;;;;;20.02;10.65;;;15.50;53.70;;;;;;4996954;28;20720;-69
2022/03/25 14:53:23;;;;;;;18.77;10.23;;;15.50;53.80;;;;;;4994077;28;20246;-71
2022/03/25 14:56:13;;;;;;;20.50;10.32;;;15.50;53.80;;;;;;4998742;28;20233;-71
2022/03/25 14:59:02;;;;;;;19.92;10.45;;;15.50;54.00;;;;;;4998615;28;20230;-71
2022/03/25 15:01:53;;;;;;;18.35;10.02;;;15.40;53.70;;;;;;4996385;28;20246;-70
2022/03/25 15:04:44;;;;;;;19.05;10.77;;;15.50;53.60;;;;;;4996771;28;20223;-66
2022/03/25 15:07:32;;;;;;;17.13;10.30;;;15.40;53.30;;;;;;4993269;28;20222;-68
2022/03/25 15:10:24;;;;;;;19.60;10.52;;;15.40;53.10;;;;;;4995102;28;20273;-69